Time;durP1;ratioP1;P1;durP2;ratioP2;P2;SDS_P1;SDS_P2;PMS_P1;PMS_P2;Temp;Humidity;BMP_temperature;BMP_pressure;BME280_temperature;BME280_humidity;BME280_pressure;Samples;Min_cycle;Max_cycle;Signal;HPM_P1;HPM_P2
2023/08/18 00:00:55;;;;;;;5.43;4.90;;;;;;;26.60;53.04;99418.00;5070999;28;20196;-67
2023/08/18 00:03:22;;;;;;;8.43;4.80;;;;;;;26.75;52.92;99423.16;5070709;28;20694;-65
2023/08/18 00:05:48;;;;;;;4.80;4.50;;;;;;;26.85;52.63;99431.13;5071369;28;20656;-66
2023/08/18 00:08:16;;;;;;;5.77;5.30;;;;;;;26.91;51.98;99427.19;5071602;28;20204;-67
2023/08/18 00:10:43;;;;;;;5.50;4.70;;;;;;;26.97;51.90;99417.78;5070960;28;20195;-67
2023/08/18 00:13:10;;;;;;;6.27;5.00;;;;;;;27.00;52.25;99411.72;5071039;28;20249;-65
2023/08/18 00:15:36;;;;;;;5.43;4.93;;;;;;;27.03;52.18;99422.03;5071472;28;20200;-65
2023/08/18 00:18:03;;;;;;;5.43;4.80;;;;;;;27.08;52.98;99421.91;5071518;28;20196;-65
2023/08/18 00:20:30;;;;;;;5.57;5.03;;;;;;;27.13;52.97;99416.34;5071089;28;20269;-67
2023/08/18 00:22:56;;;;;;;5.73;5.23;;;;;;;27.20;52.73;99427.69;5071184;28;20216;-67
2023/08/18 00:25:24;;;;;;;7.17;5.33;;;;;;;27.25;52.43;99422.94;5071446;28;20192;-66
2023/08/18 00:27:54;;;;;;;5.03;4.63;;;;;;;27.28;52.35;99429.69;5071042;28;20196;-66
2023/08/18 00:30:24;;;;;;;6.10;5.63;;;;;;;27.29;51.59;99426.66;5071396;28;20226;-66
2023/08/18 00:32:50;;;;;;;6.07;5.27;;;;;;;27.27;51.88;99425.38;5071646;28;20238;-66
2023/08/18 00:35:17;;;;;;;5.77;5.17;;;;;;;27.23;52.24;99419.69;5071017;28;20254;-66
2023/08/18 00:37:45;;;;;;;10.43;5.77;;;;;;;27.23;52.31;99427.09;5074311;28;20691;-65
2023/08/18 00:40:12;;;;;;;8.53;5.63;;;;;;;27.21;52.73;99413.75;5086037;28;20249;-66
2023/08/18 00:42:40;;;;;;;5.83;5.23;;;;;;;27.21;52.56;99412.94;5095220;28;20223;-65
2023/08/18 00:45:08;;;;;;;5.50;5.13;;;;;;;27.22;52.72;99414.53;5094867;28;20723;-65
2023/08/18 00:47:36;;;;;;;7.50;5.60;;;;;;;27.21;52.63;99415.66;5094687;28;20191;-65
2023/08/18 00:50:04;;;;;;;7.37;5.90;;;;;;;27.19;52.29;99410.47;5083772;28;20196;-65
2023/08/18 00:52:31;;;;;;;6.97;5.40;;;;;;;27.14;52.74;99418.78;5074707;28;20274;-65
2023/08/18 00:54:59;;;;;;;9.40;5.60;;;;;;;27.08;53.69;99413.75;5092357;28;20267;-65
2023/08/18 00:57:26;;;;;;;6.30;5.70;;;;;;;27.02;53.63;99420.41;5095108;28;20205;-65
2023/08/18 00:59:54;;;;;;;6.63;5.97;;;;;;;26.97;53.51;99421.31;5094747;28;20188;-65
2023/08/18 01:02:21;;;;;;;7.33;5.33;;;;;;;26.88;53.71;99411.44;5094357;28;20227;-66
2023/08/18 01:04:47;;;;;;;5.23;4.93;;;;;;;26.90;53.85;99422.88;5077058;28;20679;-65
2023/08/18 01:07:14;;;;;;;6.90;5.57;;;;;;;26.88;54.70;99430.53;5082688;28;20678;-66
2023/08/18 01:09:41;;;;;;;5.90;5.40;;;;;;;26.85;54.42;99425.66;5094658;28;20252;-65
2023/08/18 01:12:18;;;;;;;6.27;5.70;;;;;;;26.88;54.77;99419.63;5094805;28;20257;-65
2023/08/18 01:14:55;;;;;;;9.17;5.80;;;;;;;26.97;54.74;99425.97;5092712;28;20183;-66
2023/08/18 01:17:28;;;;;;;6.07;5.37;;;;;;;27.07;54.69;99428.50;5094331;28;20628;-65
2023/08/18 01:19:56;;;;;;;5.10;4.80;;;;;;;26.96;53.89;99427.09;5094354;28;20256;-65
2023/08/18 01:22:23;;;;;;;6.53;5.00;;;;;;;26.81;53.89;99430.09;5094385;28;20223;-65
2023/08/18 01:24:58;;;;;;;6.90;5.10;;;;;;;26.67;55.08;99429.31;5076637;28;20668;-65
2023/08/18 01:27:24;;;;;;;5.10;4.63;;;;;;;26.69;55.36;99429.81;5074266;28;20191;-65
2023/08/18 01:29:51;;;;;;;6.23;5.50;;;;;;;26.72;54.90;99430.03;5073904;28;20345;-66
2023/08/18 01:32:19;;;;;;;5.67;5.17;;;;;;;26.72;54.81;99432.75;5074115;28;20253;-66
2023/08/18 01:34:48;;;;;;;5.50;5.10;;;;;;;26.74;55.07;99435.19;5088389;28;20638;-65
2023/08/18 01:37:16;;;;;;;6.93;4.87;;;;;;;26.74;54.93;99425.06;5093998;28;20299;-66
2023/08/18 01:39:44;;;;;;;9.77;5.13;;;;;;;26.76;54.59;99435.66;5093880;28;20183;-66
2023/08/18 01:42:13;;;;;;;6.57;5.20;;;;;;;26.69;54.97;99425.16;5093742;28;20198;-66
2023/08/18 01:44:40;;;;;;;4.83;4.53;;;;;;;26.59;56.05;99427.28;5078688;28;20192;-66
2023/08/18 01:47:07;;;;;;;8.97;5.70;;;;;;;26.55;55.93;99426.25;5073758;28;20208;-66
2023/08/18 01:49:33;;;;;;;6.37;5.07;;;;;;;26.58;55.85;99422.94;5073299;28;20772;-66
2023/08/18 01:52:00;;;;;;;8.83;5.37;;;;;;;26.55;56.41;99420.78;5073671;28;20188;-66
2023/08/18 01:54:27;;;;;;;8.83;5.13;;;;;;;26.52;55.82;99426.84;5073039;28;20195;-67
2023/08/18 01:56:54;;;;;;;9.40;6.10;;;;;;;26.49;56.48;99421.97;5073499;28;20256;-66
2023/08/18 01:59:22;;;;;;;14.93;6.23;;;;;;;26.42;57.09;99424.31;5073097;28;20203;-66
2023/08/18 02:01:48;;;;;;;10.00;5.87;;;;;;;26.43;56.94;99417.75;5073151;28;20655;-66
2023/08/18 02:04:15;;;;;;;15.97;5.73;;;;;;;26.52;57.07;99410.50;5073312;28;20292;-66
2023/08/18 02:06:41;;;;;;;6.80;5.30;;;;;;;26.53;56.71;99407.47;5077604;28;20187;-66
2023/08/18 02:09:08;;;;;;;11.73;5.73;;;;;;;26.53;56.99;99412.91;5093461;28;20578;-66
2023/08/18 02:11:35;;;;;;;8.33;5.77;;;;;;;26.48;57.02;99414.91;5093528;28;20245;-66
2023/08/18 02:14:01;;;;;;;9.13;6.07;;;;;;;26.43;57.60;99417.75;5093095;28;20265;-65
2023/08/18 02:16:30;;;;;;;5.97;5.17;;;;;;;26.51;57.47;99408.88;5093118;28;20191;-66
2023/08/18 02:18:56;;;;;;;8.87;5.87;;;;;;;26.59;57.11;99414.47;5093276;28;20191;-67
2023/08/18 02:21:23;;;;;;;6.07;5.30;;;;;;;26.61;56.51;99414.16;5093077;28;20191;-68
2023/08/18 02:23:49;;;;;;;7.17;5.57;;;;;;;26.55;56.58;99409.88;5093215;28;21062;-68
2023/08/18 02:26:16;;;;;;;10.80;4.90;;;;;;;26.53;57.02;99412.09;5093302;28;20256;-68
2023/08/18 02:28:43;;;;;;;5.57;5.10;;;;;;;26.62;56.43;99402.16;5093188;28;20187;-68
2023/08/18 02:31:10;;;;;;;8.17;5.30;;;;;;;26.60;56.21;99418.00;5093154;28;20191;-66
2023/08/18 02:33:38;;;;;;;8.50;5.40;;;;;;;26.51;56.49;99415.16;5093121;28;20200;-69
2023/08/18 02:36:05;;;;;;;6.20;5.67;;;;;;;26.52;56.91;99411.31;5092703;28;20674;-65
2023/08/18 02:38:34;;;;;;;8.17;5.60;;;;;;;26.46;57.27;99407.03;5092534;28;20222;-65
2023/08/18 02:41:01;;;;;;;8.73;4.70;;;;;;;26.48;56.95;99412.19;5092888;28;20187;-65
2023/08/18 02:43:29;;;;;;;6.13;5.43;;;;;;;26.35;57.20;99411.09;5088973;28;20211;-66
2023/08/18 02:45:57;;;;;;;11.67;5.80;;;;;;;26.35;57.64;99416.53;5092137;28;20195;-66
2023/08/18 02:48:23;;;;;;;12.00;5.77;;;;;;;26.36;57.48;99417.31;5093205;28;20246;-66
2023/08/18 02:50:52;;;;;;;7.53;5.87;;;;;;;26.28;57.57;99418.84;5092721;28;20248;-66
2023/08/18 02:53:18;;;;;;;15.23;6.17;;;;;;;26.13;59.04;99421.03;5087337;28;20273;-67
2023/08/18 02:55:46;;;;;;;14.43;5.67;;;;;;;26.12;58.88;99422.94;5072429;28;20192;-66
2023/08/18 02:58:13;;;;;;;12.20;6.27;;;;;;;26.19;58.39;99428.00;5071893;28;20188;-67
2023/08/18 03:00:40;;;;;;;10.17;5.90;;;;;;;26.22;58.01;99421.94;5071973;28;20188;-65
2023/08/18 03:03:06;;;;;;;9.27;5.60;;;;;;;26.20;58.87;99418.72;5073798;28;20230;-65
2023/08/18 03:05:37;;;;;;;10.87;5.93;;;;;;;26.20;58.21;99424.16;5092472;28;20187;-65
2023/08/18 03:08:05;;;;;;;12.30;6.67;;;;;;;26.20;58.25;99426.88;5077137;28;20267;-65
2023/08/18 03:10:32;;;;;;;10.63;6.40;;;;;;;26.14;58.75;99436.25;5072105;28;20196;-65
2023/08/18 03:12:58;;;;;;;10.03;6.20;;;;;;;26.06;59.21;99426.03;5072305;28;20200;-66
2023/08/18 03:15:25;;;;;;;8.20;6.10;;;;;;;25.98;59.48;99426.72;5092251;28;20195;-66
2023/08/18 03:17:52;;;;;;;6.33;5.70;;;;;;;25.90;59.77;99420.03;5092664;28;20191;-66
2023/08/18 03:20:19;;;;;;;7.73;5.50;;;;;;;25.96;60.32;99434.41;5092276;28;20202;-66
2023/08/18 03:22:45;;;;;;;14.47;6.37;;;;;;;26.09;59.96;99433.63;5091938;28;20198;-66
2023/08/18 03:25:13;;;;;;;9.00;5.93;;;;;;;26.16;59.30;99428.59;5072599;28;20737;-65
2023/08/18 03:27:41;;;;;;;6.50;5.97;;;;;;;26.24;59.19;99436.06;5072066;28;20188;-66
2023/08/18 03:30:08;;;;;;;6.87;5.90;;;;;;;26.26;58.31;99439.31;5071553;28;20261;-67
2023/08/18 03:32:35;;;;;;;9.03;6.37;;;;;;;26.27;57.62;99439.03;5072002;28;20268;-67
2023/08/18 03:35:02;;;;;;;7.43;5.40;;;;;;;26.28;57.50;99437.91;5072726;28;20257;-67
2023/08/18 03:37:29;;;;;;;8.90;6.10;;;;;;;26.26;57.17;99442.03;5071704;28;20259;-66
2023/08/18 03:39:56;;;;;;;7.60;6.10;;;;;;;26.27;57.29;99430.03;5071735;28;20257;-66
2023/08/18 03:42:24;;;;;;;15.43;6.40;;;;;;;26.27;57.38;99430.84;5072898;28;20187;-67
2023/08/18 03:44:50;;;;;;;12.80;5.90;;;;;;;26.28;57.12;99431.63;5071208;28;20769;-65
2023/08/18 03:47:17;;;;;;;6.77;5.97;;;;;;;26.30;57.03;99434.88;5071533;28;20655;-67
2023/08/18 03:49:44;;;;;;;6.67;6.03;;;;;;;26.24;57.95;99430.63;5071431;28;20664;-66
2023/08/18 03:52:10;;;;;;;8.17;6.77;;;;;;;26.05;58.35;99443.50;5072542;28;20200;-66
2023/08/18 03:54:37;;;;;;;9.77;7.07;;;;;;;25.95;59.22;99444.47;5091862;28;20199;-66
2023/08/18 03:57:04;;;;;;;6.67;5.97;;;;;;;25.99;59.15;99445.50;5092075;28;20230;-66
2023/08/18 03:59:32;;;;;;;8.03;5.67;;;;;;;25.90;59.90;99439.09;5092037;28;20199;-66
2023/08/18 04:01:59;;;;;;;10.33;6.30;;;;;;;26.17;59.74;99447.34;5091208;28;20632;-67
2023/08/18 04:04:25;;;;;;;18.73;6.83;;;;;;;26.39;58.37;99439.34;5089914;28;20268;-67
2023/08/18 04:06:52;;;;;;;6.20;5.53;;;;;;;26.54;58.14;99446.44;5085948;28;20241;-67
2023/08/18 04:09:19;;;;;;;7.83;6.17;;;;;;;26.69;57.42;99446.97;5071285;28;20188;-67
2023/08/18 04:11:46;;;;;;;6.60;5.80;;;;;;;26.84;57.34;99446.69;5073182;28;20672;-67
2023/08/18 04:14:14;;;;;;;12.53;6.77;;;;;;;27.04;56.56;99445.47;5091456;28;20647;-67
2023/08/18 04:16:42;;;;;;;9.37;6.53;;;;;;;27.24;56.19;99445.06;5095510;28;20199;-67
2023/08/18 04:19:09;;;;;;;12.97;6.07;;;;;;;27.54;54.96;99450.66;5095271;28;20575;-68
2023/08/18 04:21:36;;;;;;;9.83;6.50;;;;;;;27.89;53.60;99449.06;5095213;28;20592;-68
2023/08/18 04:24:03;;;;;;;13.00;6.53;;;;;;;28.31;52.13;99459.47;5083994;28;20207;-68
2023/08/18 04:26:29;;;;;;;9.67;6.07;;;;;;;28.66;51.02;99461.25;5084864;28;20245;-68
2023/08/18 04:28:56;;;;;;;8.43;5.40;;;;;;;29.00;49.69;99461.44;5085676;28;20192;-68
2023/08/18 04:31:23;;;;;;;8.17;5.63;;;;;;;29.47;48.16;99462.53;5083695;28;20192;-67
2023/08/18 04:33:52;;;;;;;11.67;4.93;;;;;;;29.85;46.07;99456.13;5085022;28;20248;-67
2023/08/18 04:36:18;;;;;;;20.87;5.47;;;;;;;30.36;44.37;99461.56;5087873;28;20237;-66
2023/08/18 04:38:45;;;;;;;9.70;5.40;;;;;;;30.79;43.29;99458.72;5083904;28;20224;-66
2023/08/18 04:41:12;;;;;;;7.50;5.30;;;;;;;30.98;40.86;99467.31;5084149;28;20726;-67
2023/08/18 04:43:39;;;;;;;10.30;5.10;;;;;;;31.29;40.04;99463.16;5074792;28;20215;-66
2023/08/18 04:46:06;;;;;;;9.23;5.70;;;;;;;31.54;39.27;99470.44;5074840;28;20195;-67
2023/08/18 04:48:32;;;;;;;5.77;4.77;;;;;;;31.58;38.74;99471.38;5074711;28;20250;-67
2023/08/18 04:51:00;;;;;;;5.37;4.40;;;;;;;31.74;38.33;99468.81;5082677;28;20233;-67
2023/08/18 04:53:27;;;;;;;16.80;5.33;;;;;;;31.76;38.37;99481.09;5083771;28;20561;-67
2023/08/18 04:55:54;;;;;;;8.90;4.37;;;;;;;31.72;37.88;99476.59;5083309;28;20732;-68
2023/08/18 04:58:20;;;;;;;13.13;4.47;;;;;;;31.58;37.77;99479.59;5080195;28;20663;-67
2023/08/18 05:00:47;;;;;;;7.03;3.87;;;;;;;31.63;38.62;99484.91;5093147;28;20659;-68
2023/08/18 05:03:14;;;;;;;19.03;4.73;;;;;;;31.95;38.18;99481.44;5094310;28;20195;-67
2023/08/18 05:05:56;;;;;;;9.17;4.80;;;;;;;32.20;37.88;99476.84;5094635;28;20264;-68
2023/08/18 05:08:25;;;;;;;7.50;5.53;;;;;;;32.67;37.12;99486.41;5076400;28;20265;-66
2023/08/18 05:10:51;;;;;;;8.27;4.67;;;;;;;32.92;36.56;99488.84;5084445;28;20203;-68
2023/08/18 05:13:18;;;;;;;11.70;4.87;;;;;;;33.33;35.83;99487.06;5094290;28;20192;-67
2023/08/18 05:15:45;;;;;;;7.13;4.60;;;;;;;33.64;35.13;99487.25;5094201;28;20250;-67
2023/08/18 05:18:11;;;;;;;7.20;4.53;;;;;;;33.66;35.01;99491.25;5094247;28;20191;-65
2023/08/18 05:20:38;;;;;;;9.07;4.75;;;;;;;33.92;34.59;99497.19;5084639;28;20188;-66
2023/08/18 05:23:05;;;;;;;9.05;4.68;;;;;;;34.34;33.70;99492.13;5073141;28;20245;-66
2023/08/18 05:25:33;;;;;;;11.35;4.55;;;;;;;34.37;33.95;99488.66;5073569;28;20306;-68
2023/08/18 05:28:00;;;;;;;4.30;3.95;;;;;;;34.53;33.67;99487.50;5072418;28;20192;-67
2023/08/18 05:30:27;;;;;;;11.27;4.47;;;;;;;35.12;32.65;99481.94;5077209;28;20225;-67
2023/08/18 05:32:53;;;;;;;6.57;4.07;;;;;;;35.16;31.81;99482.84;5092044;28;20662;-67
2023/08/18 05:35:20;;;;;;;7.05;4.22;;;;;;;35.26;32.34;99487.81;5092569;28;20591;-66
2023/08/18 05:37:47;;;;;;;8.02;4.07;;;;;;;35.43;32.33;99487.47;5092707;28;20276;-67
2023/08/18 05:40:13;;;;;;;6.85;4.88;;;;;;;35.59;32.14;99491.78;5091202;28;20187;-64
2023/08/18 05:42:42;;;;;;;9.20;4.57;;;;;;;35.85;31.18;99488.44;5092814;28;20655;-66
2023/08/18 05:45:09;;;;;;;10.65;4.10;;;;;;;35.99;30.79;99483.19;5093288;28;20214;-64
2023/08/18 05:47:36;;;;;;;7.15;3.90;;;;;;;36.59;29.82;99493.50;5093053;28;20195;-64
2023/08/18 05:50:03;;;;;;;9.73;4.30;;;;;;;36.69;29.41;99493.72;5089464;28;20215;-66
2023/08/18 05:52:30;;;;;;;10.13;4.10;;;;;;;36.41;29.79;99484.03;5075999;28;20245;-65
2023/08/18 05:54:57;;;;;;;3.75;3.45;;;;;;;36.44;30.10;99495.19;5072358;28;20664;-65
2023/08/18 05:57:23;;;;;;;4.30;3.97;;;;;;;36.37;29.47;99491.47;5071496;28;20249;-65
2023/08/18 05:59:51;;;;;;;8.25;3.85;;;;;;;36.24;29.85;99490.84;5072325;28;20196;-65
2023/08/18 06:02:18;;;;;;;4.63;4.18;;;;;;;36.39;29.60;99492.75;5089427;28;20191;-66
2023/08/18 06:04:45;;;;;;;3.65;3.35;;;;;;;36.36;29.75;99498.19;5081643;28;20284;-66
2023/08/18 06:07:12;;;;;;;14.23;4.15;;;;;;;36.22;29.38;99497.91;5078932;28;20228;-65
2023/08/18 06:09:39;;;;;;;9.05;4.15;;;;;;;36.01;29.84;99497.47;5089099;28;20195;-65
2023/08/18 06:12:06;;;;;;;7.35;3.67;;;;;;;36.02;30.11;99504.59;5086302;28;20249;-68
2023/08/18 06:14:32;;;;;;;12.40;4.15;;;;;;;36.04;30.23;99494.75;5070805;28;20244;-67
2023/08/18 06:17:01;;;;;;;8.90;3.60;;;;;;;36.11;30.07;99500.44;5071257;28;20196;-67
2023/08/18 06:19:27;;;;;;;7.93;4.00;;;;;;;36.28;30.21;99497.25;5082229;28;20232;-67
2023/08/18 06:21:54;;;;;;;6.72;4.00;;;;;;;36.26;30.32;99501.56;5071553;28;20192;-67
2023/08/18 06:24:21;;;;;;;10.68;4.28;;;;;;;36.24;30.49;99504.69;5072044;28;20220;-66
2023/08/18 06:26:47;;;;;;;8.90;4.70;;;;;;;36.07;30.63;99502.34;5072598;28;20196;-66
2023/08/18 06:29:14;;;;;;;6.43;3.80;;;;;;;35.87;30.43;99477.78;5079402;28;20195;-67
2023/08/18 06:31:41;;;;;;;12.65;4.75;;;;;;;35.90;30.43;99496.44;5091226;28;20187;-66
2023/08/18 06:34:09;;;;;;;9.48;4.25;;;;;;;35.88;30.57;99499.56;5079609;28;20248;-67
2023/08/18 06:36:35;;;;;;;8.23;4.18;;;;;;;35.81;30.97;99490.31;5071825;28;20246;-67
2023/08/18 06:39:02;;;;;;;5.75;4.53;;;;;;;35.88;30.79;99491.25;5078444;28;20215;-66
2023/08/18 06:41:29;;;;;;;9.60;4.32;;;;;;;35.80;30.72;99497.81;5092490;28;20301;-65
2023/08/18 06:43:55;;;;;;;4.90;4.40;;;;;;;35.68;30.86;99494.34;5091888;28;20728;-66
2023/08/18 06:46:22;;;;;;;6.90;4.15;;;;;;;35.56;31.50;99486.19;5092009;28;20688;-65
2023/08/18 06:48:49;;;;;;;4.72;4.32;;;;;;;35.54;31.21;99482.97;5086305;28;20187;-66
2023/08/18 06:51:17;;;;;;;8.52;4.40;;;;;;;35.69;31.50;99490.41;5071808;28;20192;-67
2023/08/18 06:53:43;;;;;;;5.28;3.80;;;;;;;35.69;31.37;99491.19;5072072;28;20273;-67
2023/08/18 06:56:10;;;;;;;6.05;3.72;;;;;;;35.68;31.90;99489.59;5072003;28;20200;-66
2023/08/18 06:58:37;;;;;;;7.95;4.20;;;;;;;35.66;31.72;99491.13;5086440;28;20260;-65
2023/08/18 07:01:04;;;;;;;4.15;3.75;;;;;;;35.48;31.77;99492.72;5090308;28;20260;-67
2023/08/18 07:03:32;;;;;;;9.27;4.40;;;;;;;35.60;31.55;99484.31;5091577;28;20286;-66
2023/08/18 07:05:58;;;;;;;5.85;4.28;;;;;;;35.48;31.91;99489.94;5071937;28;20227;-66
2023/08/18 07:08:27;;;;;;;10.32;4.47;;;;;;;35.53;32.41;99482.19;5076596;28;20195;-65
2023/08/18 07:10:53;;;;;;;8.00;4.70;;;;;;;35.58;32.07;99479.13;5071519;28;20223;-64
2023/08/18 07:13:21;;;;;;;7.82;4.45;;;;;;;35.56;32.10;99480.66;5071313;28;20633;-65
2023/08/18 07:15:48;;;;;;;6.55;4.28;;;;;;;35.62;32.21;99476.44;5079625;28;20192;-65
2023/08/18 07:18:15;;;;;;;7.70;4.20;;;;;;;35.66;32.13;99474.53;5071508;28;20253;-64
2023/08/18 07:20:43;;;;;;;8.02;4.22;;;;;;;35.68;32.50;99467.50;5073441;28;20723;-65
2023/08/18 07:23:09;;;;;;;6.10;4.47;;;;;;;35.62;31.75;99474.47;5080133;28;20202;-64
2023/08/18 07:25:39;;;;;;;4.50;4.10;;;;;;;35.53;32.19;99475.84;5074545;28;20664;-66
2023/08/18 07:28:06;;;;;;;7.40;4.10;;;;;;;35.44;32.61;99472.47;5076177;28;20242;-65
2023/08/18 07:30:33;;;;;;;4.53;4.03;;;;;;;35.59;31.63;99471.63;5086124;28;20237;-64
2023/08/18 07:32:59;;;;;;;4.70;4.40;;;;;;;35.66;32.05;99471.78;5080138;28;20218;-64
2023/08/18 07:35:26;;;;;;;4.70;3.90;;;;;;;35.49;32.24;99470.25;5071405;28;20257;-64
2023/08/18 07:37:53;;;;;;;5.88;4.32;;;;;;;35.68;32.05;99472.25;5080980;28;20264;-63
2023/08/18 07:40:20;;;;;;;6.55;4.38;;;;;;;35.65;31.40;99478.47;5090006;28;20195;-63
2023/08/18 07:42:48;;;;;;;5.40;4.30;;;;;;;35.71;31.77;99465.97;5090898;28;20275;-64
2023/08/18 07:45:15;;;;;;;8.75;4.25;;;;;;;35.86;31.86;99470.66;5088240;28;20215;-65
2023/08/18 07:47:42;;;;;;;4.93;4.05;;;;;;;35.97;30.86;99469.72;5086890;28;20305;-66
2023/08/18 07:50:11;;;;;;;10.35;4.75;;;;;;;35.94;31.54;99467.69;5077590;28;20199;-65
2023/08/18 07:52:38;;;;;;;7.97;4.00;;;;;;;36.00;31.30;99465.41;5078022;28;20191;-64
2023/08/18 07:55:07;;;;;;;7.78;4.32;;;;;;;35.71;30.96;99465.97;5098175;28;20191;-64
2023/08/18 07:57:34;;;;;;;4.72;4.13;;;;;;;35.86;31.38;99468.72;5085462;28;20282;-64
2023/08/18 08:00:07;;;;;;;12.35;4.88;;;;;;;36.08;31.28;99476.28;5079057;28;20199;-65
2023/08/18 08:02:35;;;;;;;6.75;4.05;;;;;;;36.25;30.83;99475.06;5077748;28;20212;-67
2023/08/18 08:05:05;;;;;;;4.50;4.10;;;;;;;36.40;30.24;99487.97;5077804;28;20223;-66
2023/08/18 08:07:32;;;;;;;4.30;3.80;;;;;;;36.71;29.99;99485.03;5082639;28;20207;-68
2023/08/18 08:10:03;;;;;;;7.03;3.95;;;;;;;37.02;30.00;99479.22;5077658;28;20205;-67
2023/08/18 08:12:29;;;;;;;4.10;3.90;;;;;;;37.37;29.06;99488.13;5080306;28;20180;-66
2023/08/18 08:14:56;;;;;;;6.82;4.05;;;;;;;37.40;28.96;99481.84;5085715;28;20196;-66
2023/08/18 08:17:25;;;;;;;6.40;4.05;;;;;;;37.26;29.36;99480.84;5088477;28;20238;-65
2023/08/18 08:19:52;;;;;;;4.30;4.00;;;;;;;37.26;29.20;99476.09;5077361;28;20202;-65
2023/08/18 08:22:19;;;;;;;8.10;4.18;;;;;;;37.14;28.93;99470.75;5077369;28;20663;-65
2023/08/18 08:24:45;;;;;;;9.32;4.00;;;;;;;37.33;28.93;99467.06;5080172;28;20223;-66
2023/08/18 08:27:15;;;;;;;10.77;3.95;;;;;;;37.39;28.94;99468.38;5095937;28;20252;-64
2023/08/18 08:29:41;;;;;;;5.03;4.18;;;;;;;37.60;27.48;99468.69;5097128;28;20187;-67
2023/08/18 08:32:08;;;;;;;3.85;3.35;;;;;;;37.89;27.82;99459.56;5096718;28;20232;-66
2023/08/18 08:34:39;;;;;;;4.47;3.95;;;;;;;38.14;27.86;99469.81;5082593;28;20441;-65
2023/08/18 08:37:06;;;;;;;4.45;3.90;;;;;;;38.24;27.48;99468.31;5076147;28;20187;-66
2023/08/18 08:39:32;;;;;;;10.98;3.80;;;;;;;38.01;28.05;99462.91;5076647;28;20184;-65
2023/08/18 08:41:59;;;;;;;4.85;3.92;;;;;;;37.75;28.16;99451.06;5075558;28;20191;-65
2023/08/18 08:44:26;;;;;;;3.92;3.58;;;;;;;37.87;27.65;99454.38;5075418;28;20249;-65
2023/08/18 08:46:53;;;;;;;4.20;3.47;;;;;;;38.08;27.66;99446.34;5068286;28;20690;-67
2023/08/18 08:49:22;;;;;;;6.22;4.07;;;;;;;38.14;27.67;99450.38;5077834;28;20254;-65
2023/08/18 08:51:52;;;;;;;4.45;4.07;;;;;;;38.22;27.57;99440.16;5072911;28;20196;-66
2023/08/18 08:54:22;;;;;;;4.18;3.88;;;;;;;38.40;27.19;99446.69;5073112;28;20203;-65
2023/08/18 08:56:51;;;;;;;5.30;3.40;;;;;;;38.67;27.24;99437.88;5073402;28;20273;-66
2023/08/18 08:59:18;;;;;;;3.65;3.33;;;;;;;38.93;26.69;99431.34;5070218;28;20219;-66
2023/08/18 09:01:45;;;;;;;6.30;3.55;;;;;;;38.89;26.71;99434.06;5072140;28;20262;-66
2023/08/18 09:04:13;;;;;;;5.38;3.72;;;;;;;38.83;26.41;99432.03;5087637;28;20251;-67
2023/08/18 09:06:39;;;;;;;4.28;3.85;;;;;;;39.00;26.47;99429.44;5087658;28;20613;-65
2023/08/18 09:09:08;;;;;;;6.18;4.15;;;;;;;39.05;26.69;99433.81;5089632;28;20192;-65
2023/08/18 09:11:45;;;;;;;6.25;3.80;;;;;;;38.52;26.97;99430.56;5083258;28;20627;-64
2023/08/18 09:14:13;;;;;;;6.32;3.90;;;;;;;38.38;26.95;99416.53;5071547;28;20739;-65
2023/08/18 09:16:41;;;;;;;3.63;3.28;;;;;;;38.44;26.99;99417.78;5084815;28;20230;-64
2023/08/18 09:19:12;;;;;;;4.43;3.55;;;;;;;38.59;26.35;99411.22;5091848;28;20195;-65
2023/08/18 09:21:39;;;;;;;12.60;3.83;;;;;;;37.79;27.73;99422.19;5091238;28;20743;-64
2023/08/18 09:24:06;;;;;;;4.32;3.90;;;;;;;38.06;27.43;99414.59;5092243;28;20256;-67
2023/08/18 09:26:34;;;;;;;3.42;3.20;;;;;;;38.21;27.67;99406.03;5092100;28;20279;-65
2023/08/18 09:29:01;;;;;;;4.10;3.80;;;;;;;38.22;27.60;99413.22;5091638;28;20662;-65
2023/08/18 09:31:41;;;;;;;3.92;3.60;;;;;;;38.31;27.25;99405.34;5089137;28;20236;-65
2023/08/18 09:34:08;;;;;;;4.35;3.53;;;;;;;37.93;27.49;99424.34;5081441;28;20192;-65
2023/08/18 09:36:35;;;;;;;6.95;3.25;;;;;;;38.10;27.55;99416.25;5071821;28;20610;-64
2023/08/18 09:39:04;;;;;;;3.75;3.42;;;;;;;38.06;27.91;99415.41;5071943;28;20288;-64
2023/08/18 09:41:34;;;;;;;13.85;3.80;;;;;;;37.96;27.15;99421.59;5071958;28;20308;-64
2023/08/18 09:44:01;;;;;;;6.47;3.58;;;;;;;37.94;27.30;99418.41;5072294;28;20250;-63
2023/08/18 09:46:31;;;;;;;4.88;3.58;;;;;;;37.95;27.45;99413.63;5070879;28;20207;-63
2023/08/18 09:49:01;;;;;;;4.13;3.75;;;;;;;37.71;27.74;99414.94;5073250;28;20192;-63
2023/08/18 09:51:28;;;;;;;6.82;3.95;;;;;;;37.04;28.78;99416.72;5091847;28;20244;-64
2023/08/18 09:54:00;;;;;;;7.50;3.63;;;;;;;37.27;28.00;99416.69;5092663;28;20218;-66
2023/08/18 09:56:31;;;;;;;9.88;4.15;;;;;;;37.17;29.50;99412.63;5091837;28;20230;-68
2023/08/18 09:59:09;;;;;;;9.20;3.70;;;;;;;37.12;28.18;99421.19;5091884;28;20264;-63
2023/08/18 10:01:37;;;;;;;4.65;3.53;;;;;;;37.07;28.09;99417.97;5091440;28;20180;-63
2023/08/18 10:04:05;;;;;;;4.30;3.50;;;;;;;36.82;28.04;99405.69;5088029;28;20222;-64
2023/08/18 10:06:36;;;;;;;4.60;3.47;;;;;;;36.84;28.68;99411.66;5089302;28;20673;-65
2023/08/18 10:09:03;;;;;;;5.40;3.30;;;;;;;36.60;28.85;99412.03;5086962;28;20202;-65
2023/08/18 10:11:30;;;;;;;6.10;3.55;;;;;;;36.78;29.36;99410.38;5079742;28;20184;-63
2023/08/18 10:13:57;;;;;;;10.43;3.92;;;;;;;37.06;29.04;99410.81;5085586;28;20253;-64
2023/08/18 10:16:26;;;;;;;7.00;4.07;;;;;;;37.22;28.46;99414.25;5081685;28;20574;-65
2023/08/18 10:18:56;;;;;;;5.18;3.35;;;;;;;36.95;28.22;99407.09;5076752;28;20184;-65
2023/08/18 10:21:23;;;;;;;5.03;3.97;;;;;;;37.02;28.55;99407.19;5069832;28;20226;-64
2023/08/18 10:23:50;;;;;;;4.63;3.75;;;;;;;36.76;28.94;99401.66;5080421;28;20195;-66
2023/08/18 10:26:45;;;;;;;4.35;3.95;;;;;;;37.06;28.47;99388.66;5091233;28;20241;-68
2023/08/18 10:29:15;;;;;;;7.22;3.65;;;;;;;37.01;27.91;99394.53;5088058;28;20199;-63
2023/08/18 10:31:48;;;;;;;7.72;4.20;;;;;;;37.14;28.04;99395.94;5108208;22;21009;-65
2023/08/18 10:34:24;;;;;;;3.75;3.45;;;;;;;37.21;27.67;99390.50;5027519;28;20190;-65
2023/08/18 10:36:58;;;;;;;3.60;3.40;;;;;;;37.23;27.86;99382.59;5014770;28;20865;-64
2023/08/18 10:39:26;;;;;;;4.15;3.53;;;;;;;37.33;27.99;99384.72;5030612;28;20875;-61
2023/08/18 10:42:09;;;;;;;3.63;3.42;;;;;;;37.09;28.15;99388.72;5030985;28;20190;-65
2023/08/18 10:44:36;;;;;;;3.83;3.40;;;;;;;36.53;29.51;99384.22;5030518;28;20331;-64
2023/08/18 10:47:31;;;;;;;4.07;3.78;;;;;;;36.93;28.52;99382.53;5028122;28;20225;-64
2023/08/18 10:49:58;;;;;;;6.03;3.83;;;;;;;36.49;28.50;99389.69;5009693;28;20667;-64
2023/08/18 10:52:27;;;;;;;8.10;3.90;;;;;;;36.68;28.58;99383.31;5010482;28;20280;-65
2023/08/18 10:54:54;;;;;;;4.35;3.92;;;;;;;36.74;28.86;99370.75;5011255;28;20341;-65
2023/08/18 10:57:21;;;;;;;7.72;3.85;;;;;;;36.47;28.94;99349.72;5015144;28;20276;-62
2023/08/18 10:59:47;;;;;;;8.85;3.75;;;;;;;36.23;29.43;99372.22;5030553;28;20590;-63
2023/08/18 11:02:16;;;;;;;5.55;3.63;;;;;;;36.55;28.13;99356.97;5030536;28;20193;-64
2023/08/18 11:04:43;;;;;;;6.18;3.33;;;;;;;36.62;27.60;99373.72;5030405;28;20251;-64
2023/08/18 11:07:09;;;;;;;9.73;3.58;;;;;;;36.26;26.66;99383.34;5021224;28;20625;-63
2023/08/18 11:09:37;;;;;;;3.50;3.00;;;;;;;36.27;26.89;99373.09;5030513;28;20189;-64
2023/08/18 11:12:05;;;;;;;4.53;3.60;;;;;;;36.27;27.23;99384.16;5030178;28;20248;-64
2023/08/18 11:14:32;;;;;;;4.00;2.47;;;;;;;36.30;26.18;99383.44;5030550;28;20211;-65
2023/08/18 11:16:59;;;;;;;7.07;3.45;;;;;;;36.14;25.90;99388.25;5023515;28;20274;-64
2023/08/18 11:19:27;;;;;;;6.40;3.13;;;;;;;36.27;26.02;99378.63;5010105;28;20194;-65
2023/08/18 11:21:54;;;;;;;3.28;2.83;;;;;;;36.38;25.50;99383.19;5011155;28;20198;-65
2023/08/18 11:24:21;;;;;;;4.75;3.40;;;;;;;36.49;25.73;99377.81;5010196;28;20198;-63
2023/08/18 11:26:48;;;;;;;4.45;3.38;;;;;;;36.33;26.05;99382.69;5028139;28;20542;-63
2023/08/18 11:29:15;;;;;;;6.07;3.17;;;;;;;36.38;25.67;99374.09;5034068;28;20580;-64
2023/08/18 11:31:42;;;;;;;3.90;3.40;;;;;;;35.98;26.80;99371.75;5041354;28;20766;-65
2023/08/18 11:34:09;;;;;;;3.10;2.50;;;;;;;36.13;27.29;99364.53;5023831;28;20208;-64